sensor_id;sensor_type;location;lat;lon;timestamp;pressure;altitude;pressure_sealevel;temperature;humidity
67931;BME280;63902;52.000;5.954;2023-02-15T00:00:25;102555.22;;;1.09;100.00
67931;BME280;63902;52.000;5.954;2023-02-15T00:01:26;102557.78;;;1.08;100.00
67931;BME280;63902;52.000;5.954;2023-02-15T00:02:26;102549.03;;;1.06;100.00
67931;BME280;63902;52.000;5.954;2023-02-15T00:03:27;102551.63;;;1.06;100.00
67931;BME280;63902;52.000;5.954;2023-02-15T00:04:27;102550.75;;;1.05;100.00
67931;BME280;63902;52.000;5.954;2023-02-15T00:05:30;102547.28;;;1.06;100.00
67931;BME280;63902;52.000;5.954;2023-02-15T00:06:31;102548.13;;;1.05;100.00
67931;BME280;63902;52.000;5.954;2023-02-15T00:07:31;102532.34;;;1.01;100.00
67931;BME280;63902;52.000;5.954;2023-02-15T00:08:33;102546.53;;;1.10;100.00
67931;BME280;63902;52.000;5.954;2023-02-15T00:09:34;102545.66;;;1.10;100.00
67931;BME280;63902;52.000;5.954;2023-02-15T00:10:34;102541.09;;;1.01;100.00
67931;BME280;63902;52.000;5.954;2023-02-15T00:11:35;102545.59;;;1.07;100.00
67931;BME280;63902;52.000;5.954;2023-02-15T00:12:35;102539.44;;;1.06;100.00
67931;BME280;63902;52.000;5.954;2023-02-15T00:13:36;102544.59;;;1.03;100.00
67931;BME280;63902;52.000;5.954;2023-02-15T00:14:36;102528.09;;;1.04;100.00
67931;BME280;63902;52.000;5.954;2023-02-15T00:15:37;102533.34;;;1.06;100.00
67931;BME280;63902;52.000;5.954;2023-02-15T00:16:38;102535.94;;;1.06;100.00
67931;BME280;63902;52.000;5.954;2023-02-15T00:17:39;102537.53;;;0.99;100.00
67931;BME280;63902;52.000;5.954;2023-02-15T00:18:39;102541.00;;;0.98;100.00
67931;BME280;63902;52.000;5.954;2023-02-15T00:19:40;102538.34;;;0.97;100.00
67931;BME280;63902;52.000;5.954;2023-02-15T00:20:40;102543.63;;;0.98;100.00
67931;BME280;63902;52.000;5.954;2023-02-15T00:21:41;102533.84;;;0.91;100.00
67931;BME280;63902;52.000;5.954;2023-02-15T00:22:42;102538.28;;;0.95;100.00
67931;BME280;63902;52.000;5.954;2023-02-15T00:23:44;102537.38;;;0.93;100.00
67931;BME280;63902;52.000;5.954;2023-02-15T00:24:44;102539.00;;;0.89;100.00
67931;BME280;63902;52.000;5.954;2023-02-15T00:25:44;102544.22;;;0.89;100.00
67931;BME280;63902;52.000;5.954;2023-02-15T00:26:46;102546.84;;;0.89;100.00
67931;BME280;63902;52.000;5.954;2023-02-15T00:27:47;102542.47;;;0.88;100.00
67931;BME280;63902;52.000;5.954;2023-02-15T00:28:47;102549.44;;;0.88;100.00
67931;BME280;63902;52.000;5.954;2023-02-15T00:29:47;102545.94;;;0.87;100.00
67931;BME280;63902;52.000;5.954;2023-02-15T00:30:48;102519.31;;;0.69;100.00
67931;BME280;63902;52.000;5.954;2023-02-15T00:31:48;102545.88;;;0.84;100.00
67931;BME280;63902;52.000;5.954;2023-02-15T00:32:49;102544.06;;;0.83;100.00
67931;BME280;63902;52.000;5.954;2023-02-15T00:33:49;102541.38;;;0.79;100.00
67931;BME280;63902;52.000;5.954;2023-02-15T00:34:50;102544.06;;;0.83;100.00
67931;BME280;63902;52.000;5.954;2023-02-15T00:35:56;102544.16;;;0.86;100.00
67931;BME280;63902;52.000;5.954;2023-02-15T00:36:57;102544.16;;;0.86;100.00
67931;BME280;63902;52.000;5.954;2023-02-15T00:37:57;102542.44;;;0.87;100.00
67931;BME280;63902;52.000;5.954;2023-02-15T00:38:59;102539.84;;;0.87;100.00
67931;BME280;63902;52.000;5.954;2023-02-15T00:39:59;102542.34;;;0.84;100.00
67931;BME280;63902;52.000;5.954;2023-02-15T00:41:01;102540.63;;;0.84;100.00
67931;BME280;63902;52.000;5.954;2023-02-15T00:42:02;102542.25;;;0.81;100.00
67931;BME280;63902;52.000;5.954;2023-02-15T00:43:03;102537.81;;;0.77;100.00
67931;BME280;63902;52.000;5.954;2023-02-15T00:44:04;102526.28;;;0.69;100.00
67931;BME280;63902;52.000;5.954;2023-02-15T00:45:05;102526.34;;;0.70;100.00
67931;BME280;63902;52.000;5.954;2023-02-15T00:46:06;102532.38;;;0.69;100.00
67931;BME280;63902;52.000;5.954;2023-02-15T00:47:06;102524.59;;;0.71;100.00
67931;BME280;63902;52.000;5.954;2023-02-15T00:48:06;102525.34;;;0.66;100.00
67931;BME280;63902;52.000;5.954;2023-02-15T00:49:07;102531.56;;;0.70;100.00
67931;BME280;63902;52.000;5.954;2023-02-15T00:50:08;102528.88;;;0.69;100.00
67931;BME280;63902;52.000;5.954;2023-02-15T00:51:09;102519.09;;;0.61;100.00
67931;BME280;63902;52.000;5.954;2023-02-15T00:52:09;102526.13;;;0.62;100.00
67931;BME280;63902;52.000;5.954;2023-02-15T00:53:10;102529.66;;;0.64;100.00
67931;BME280;63902;52.000;5.954;2023-02-15T00:54:11;102521.69;;;0.60;100.00
67931;BME280;63902;52.000;5.954;2023-02-15T00:55:12;102528.66;;;0.59;100.00
67931;BME280;63902;52.000;5.954;2023-02-15T00:56:12;102528.66;;;0.59;100.00
67931;BME280;63902;52.000;5.954;2023-02-15T00:57:13;102526.84;;;0.57;100.00
67931;BME280;63902;52.000;5.954;2023-02-15T00:58:14;102523.28;;;0.55;100.00
67931;BME280;63902;52.000;5.954;2023-02-15T00:59:15;102527.63;;;0.54;100.00
67931;BME280;63902;52.000;5.954;2023-02-15T01:00:16;102522.34;;;0.53;100.00
67931;BME280;63902;52.000;5.954;2023-02-15T01:01:18;102525.84;;;0.53;100.00
67931;BME280;63902;52.000;5.954;2023-02-15T01:02:19;102517.06;;;0.50;100.00
67931;BME280;63902;52.000;5.954;2023-02-15T01:03:20;102516.31;;;0.54;100.00
67931;BME280;63902;52.000;5.954;2023-02-15T01:04:21;102516.34;;;0.55;100.00
67931;BME280;63902;52.000;5.954;2023-02-15T01:05:21;102511.03;;;0.52;100.00
67931;BME280;63902;52.000;5.954;2023-02-15T01:06:21;102522.44;;;0.56;100.00
67931;BME280;63902;52.000;5.954;2023-02-15T01:07:22;102520.72;;;0.56;100.00
67931;BME280;63902;52.000;5.954;2023-02-15T01:08:22;102516.31;;;0.54;100.00
67931;BME280;63902;52.000;5.954;2023-02-15T01:09:24;102511.00;;;0.51;100.00
67931;BME280;63902;52.000;5.954;2023-02-15T01:10:25;102512.63;;;0.47;100.00
67931;BME280;63902;52.000;5.954;2023-02-15T01:11:26;102510.00;;;0.46;100.00
67931;BME280;63902;52.000;5.954;2023-02-15T01:12:26;102513.41;;;0.44;100.00
67931;BME280;63902;52.000;5.954;2023-02-15T01:13:27;102510.06;;;0.49;100.00
67931;BME280;63902;52.000;5.954;2023-02-15T01:14:27;102509.22;;;0.50;100.00
67931;BME280;63902;52.000;5.954;2023-02-15T01:15:28;102508.41;;;0.52;100.00
67931;BME280;63902;52.000;5.954;2023-02-15T01:16:29;102505.88;;;0.54;100.00
67931;BME280;63902;52.000;5.954;2023-02-15T01:17:30;102504.13;;;0.54;100.00
67931;BME280;63902;52.000;5.954;2023-02-15T01:18:32;102501.53;;;0.54;100.00
67931;BME280;63902;52.000;5.954;2023-02-15T01:19:32;102502.41;;;0.55;100.00
67931;BME280;63902;52.000;5.954;2023-02-15T01:20:35;102504.16;;;0.56;100.00
67931;BME280;63902;52.000;5.954;2023-02-15T01:21:35;102483.03;;;0.47;100.00
67931;BME280;63902;52.000;5.954;2023-02-15T01:22:36;102494.44;;;0.50;100.00
67931;BME280;63902;52.000;5.954;2023-02-15T01:23:36;102494.41;;;0.49;100.00
67931;BME280;63902;52.000;5.954;2023-02-15T01:24:38;102470.47;;;0.33;100.00
67931;BME280;63902;52.000;5.954;2023-02-15T01:25:39;102505.66;;;0.48;100.00
67931;BME280;63902;52.000;5.954;2023-02-15T01:26:39;102487.22;;;0.40;100.00
67931;BME280;63902;52.000;5.954;2023-02-15T01:27:40;102496.81;;;0.41;100.00
67931;BME280;63902;52.000;5.954;2023-02-15T01:28:40;102475.53;;;0.27;100.00
67931;BME280;63902;52.000;5.954;2023-02-15T01:29:41;102502.97;;;0.43;100.00
67931;BME280;63902;52.000;5.954;2023-02-15T01:30:41;102494.19;;;0.41;100.00
67931;BME280;63902;52.000;5.954;2023-02-15T01:31:42;102495.94;;;0.42;100.00
67931;BME280;63902;52.000;5.954;2023-02-15T01:32:42;102494.19;;;0.41;100.00
67931;BME280;63902;52.000;5.954;2023-02-15T01:33:43;102496.84;;;0.42;100.00
67931;BME280;63902;52.000;5.954;2023-02-15T01:34:43;102476.72;;;0.38;100.00
67931;BME280;63902;52.000;5.954;2023-02-15T01:35:44;102484.53;;;0.37;100.00
67931;BME280;63902;52.000;5.954;2023-02-15T01:36:45;102488.75;;;0.33;100.00
67931;BME280;63902;52.000;5.954;2023-02-15T01:37:45;102489.66;;;0.34;100.00
67931;BME280;63902;52.000;5.954;2023-02-15T01:38:46;102488.72;;;0.32;100.00
67931;BME280;63902;52.000;5.954;2023-02-15T01:39:48;102482.56;;;0.30;100.00
67931;BME280;63902;52.000;5.954;2023-02-15T01:40:50;102481.59;;;0.26;100.00
67931;BME280;63902;52.000;5.954;2023-02-15T01:41:51;102479.09;;;0.31;100.00
67931;BME280;63902;52.000;5.954;2023-02-15T01:42:52;102483.50;;;0.32;100.00
67931;BME280;63902;52.000;5.954;2023-02-15T01:43:55;102472.81;;;0.22;100.00
67931;BME280;63902;52.000;5.954;2023-02-15T01:44:57;102479.88;;;0.27;100.00
67931;BME280;63902;52.000;5.954;2023-02-15T01:45:58;102468.41;;;0.21;100.00
67931;BME280;63902;52.000;5.954;2023-02-15T01:46:58;102481.78;;;0.32;100.00
67931;BME280;63902;52.000;5.954;2023-02-15T01:48:02;102479.16;;;0.32;100.00
67931;BME280;63902;52.000;5.954;2023-02-15T01:49:09;102471.19;;;0.28;100.00
67931;BME280;63902;52.000;5.954;2023-02-15T01:50:16;102481.84;;;0.35;100.00
67931;BME280;63902;52.000;5.954;2023-02-15T01:51:19;102480.97;;;0.35;100.00
67931;BME280;63902;52.000;5.954;2023-02-15T01:52:20;102485.34;;;0.36;100.00
67931;BME280;63902;52.000;5.954;2023-02-15T01:53:24;102485.34;;;0.36;100.00
67931;BME280;63902;52.000;5.954;2023-02-15T01:54:27;102484.47;;;0.35;100.00
67931;BME280;63902;52.000;5.954;2023-02-15T01:55:33;102478.28;;;0.32;100.00
67931;BME280;63902;52.000;5.954;2023-02-15T01:56:37;102483.59;;;0.35;100.00
67931;BME280;63902;52.000;5.954;2023-02-15T01:57:40;102480.03;;;0.33;100.00
67931;BME280;63902;52.000;5.954;2023-02-15T01:58:42;102483.38;;;0.27;100.00
67931;BME280;63902;52.000;5.954;2023-02-15T01:59:46;102475.50;;;0.26;100.00
67931;BME280;63902;52.000;5.954;2023-02-15T02:00:49;102477.19;;;0.24;100.00
67931;BME280;63902;52.000;5.954;2023-02-15T02:01:50;102476.31;;;0.23;100.00
67931;BME280;63902;52.000;5.954;2023-02-15T02:02:54;102480.72;;;0.26;100.00
67931;BME280;63902;52.000;5.954;2023-02-15T02:03:59;102476.38;;;0.26;100.00
67931;BME280;63902;52.000;5.954;2023-02-15T02:05:05;102477.22;;;0.25;100.00
67931;BME280;63902;52.000;5.954;2023-02-15T02:06:07;102471.03;;;0.21;100.00
67931;BME280;63902;52.000;5.954;2023-02-15T02:07:08;102477.09;;;0.20;100.00
67931;BME280;63902;52.000;5.954;2023-02-15T02:08:09;102455.06;;;0.11;100.00
67931;BME280;63902;52.000;5.954;2023-02-15T02:09:10;102470.88;;;0.15;100.00
67931;BME280;63902;52.000;5.954;2023-02-15T02:10:14;102477.03;;;0.19;100.00
67931;BME280;63902;52.000;5.954;2023-02-15T02:11:16;102474.41;;;0.17;100.00
67931;BME280;63902;52.000;5.954;2023-02-15T02:12:17;102476.09;;;0.15;100.00
67931;BME280;63902;52.000;5.954;2023-02-15T02:13:18;102469.06;;;0.13;100.00
67931;BME280;63902;52.000;5.954;2023-02-15T02:14:18;102475.13;;;0.12;100.00
67931;BME280;63902;52.000;5.954;2023-02-15T02:15:22;102466.34;;;0.10;100.00
67931;BME280;63902;52.000;5.954;2023-02-15T02:16:25;102468.09;;;0.09;100.00
67931;BME280;63902;52.000;5.954;2023-02-15T02:17:38;102464.59;;;0.09;100.00
67931;BME280;63902;52.000;5.954;2023-02-15T02:18:54;102460.19;;;0.06;100.00
67931;BME280;63902;52.000;5.954;2023-02-15T02:20:30;102458.28;;;0.01;100.00
67931;BME280;63902;52.000;5.954;2023-02-15T02:22:02;102458.22;;;-0.01;100.00
67931;BME280;63902;52.000;5.954;2023-02-15T02:24:58;102445.97;;;-0.04;100.00
67931;BME280;63902;52.000;5.954;2023-02-15T02:26:41;102454.78;;;0.00;100.00
67931;BME280;63902;52.000;5.954;2023-02-15T02:27:50;102456.47;;;-0.02;100.00
67931;BME280;63902;52.000;5.954;2023-02-15T02:30:59;102459.88;;;-0.05;100.00
67931;BME280;63902;52.000;5.954;2023-02-15T02:32:21;102440.53;;;-0.11;100.00
67931;BME280;63902;52.000;5.954;2023-02-15T02:33:41;102449.28;;;-0.09;100.00
67931;BME280;63902;52.000;5.954;2023-02-15T02:34:50;102446.69;;;-0.09;100.00
67931;BME280;63902;52.000;5.954;2023-02-15T02:35:57;102445.00;;;-0.07;100.00
67931;BME280;63902;52.000;5.954;2023-02-15T02:37:08;102449.28;;;-0.09;100.00
67931;BME280;63902;52.000;5.954;2023-02-15T02:38:23;102444.84;;;-0.13;100.00
67931;BME280;63902;52.000;5.954;2023-02-15T02:39:33;102442.16;;;-0.15;100.00
67931;BME280;63902;52.000;5.954;2023-02-15T02:40:45;102443.09;;;-0.13;100.00
67931;BME280;63902;52.000;5.954;2023-02-15T02:41:57;102440.44;;;-0.14;100.00
67931;BME280;63902;52.000;5.954;2023-02-15T02:43:02;102447.56;;;-0.09;100.00
67931;BME280;63902;52.000;5.954;2023-02-15T02:44:13;102432.63;;;-0.14;100.00
67931;BME280;63902;52.000;5.954;2023-02-15T02:45:18;102437.91;;;-0.11;100.00
67931;BME280;63902;52.000;5.954;2023-02-15T02:46:24;102439.66;;;-0.12;100.00
67931;BME280;63902;52.000;5.954;2023-02-15T02:47:30;102442.31;;;-0.10;100.00
67931;BME280;63902;52.000;5.954;2023-02-15T02:48:34;102436.13;;;-0.14;100.00
67931;BME280;63902;52.000;5.954;2023-02-15T02:49:37;102435.22;;;-0.14;100.00
67931;BME280;63902;52.000;5.954;2023-02-15T02:50:39;102430.88;;;-0.15;100.00
67931;BME280;63902;52.000;5.954;2023-02-15T02:51:40;102439.53;;;-0.16;100.00
67931;BME280;63902;52.000;5.954;2023-02-15T02:52:42;102431.72;;;-0.16;100.00
67931;BME280;63902;52.000;5.954;2023-02-15T02:53:43;102428.16;;;-0.18;100.00
67931;BME280;63902;52.000;5.954;2023-02-15T02:54:43;102431.72;;;-0.16;100.00
67931;BME280;63902;52.000;5.954;2023-02-15T02:55:46;102426.44;;;-0.18;100.00
67931;BME280;63902;52.000;5.954;2023-02-15T02:56:48;102428.09;;;-0.21;100.00
67931;BME280;63902;52.000;5.954;2023-02-15T02:57:53;102427.19;;;-0.22;100.00
67931;BME280;63902;52.000;5.954;2023-02-15T02:58:57;102418.38;;;-0.26;100.00
67931;BME280;63902;52.000;5.954;2023-02-15T03:00:02;102394.66;;;-0.35;100.00
67931;BME280;63902;52.000;5.954;2023-02-15T03:01:08;102429.75;;;-0.24;100.00
67931;BME280;63902;52.000;5.954;2023-02-15T03:02:14;102421.84;;;-0.27;100.00
67931;BME280;63902;52.000;5.954;2023-02-15T03:03:20;102420.91;;;-0.29;100.00
67931;BME280;63902;52.000;5.954;2023-02-15T03:04:26;102417.47;;;-0.28;100.00
67931;BME280;63902;52.000;5.954;2023-02-15T03:05:29;102420.97;;;-0.27;100.00
67931;BME280;63902;52.000;5.954;2023-02-15T03:06:35;102404.03;;;-0.41;100.00
67931;BME280;63902;52.000;5.954;2023-02-15T03:07:37;102417.28;;;-0.34;100.00
67931;BME280;63902;52.000;5.954;2023-02-15T03:08:42;102425.94;;;-0.35;100.00
67931;BME280;63902;52.000;5.954;2023-02-15T03:09:46;102417.25;;;-0.35;100.00
67931;BME280;63902;52.000;5.954;2023-02-15T03:10:53;102419.88;;;-0.34;100.00
67931;BME280;63902;52.000;5.954;2023-02-15T03:11:55;102403.34;;;-0.36;100.00
67931;BME280;63902;52.000;5.954;2023-02-15T03:12:56;102415.53;;;-0.35;100.00
67931;BME280;63902;52.000;5.954;2023-02-15T03:13:57;102418.13;;;-0.35;100.00
67931;BME280;63902;52.000;5.954;2023-02-15T03:15:00;102409.38;;;-0.37;100.00
67931;BME280;63902;52.000;5.954;2023-02-15T03:16:03;102410.22;;;-0.38;100.00
67931;BME280;63902;52.000;5.954;2023-02-15T03:17:06;102408.47;;;-0.39;100.00
67931;BME280;63902;52.000;5.954;2023-02-15T03:18:08;102406.69;;;-0.40;100.00
67931;BME280;63902;52.000;5.954;2023-02-15T03:19:10;102411.88;;;-0.40;100.00
67931;BME280;63902;52.000;5.954;2023-02-15T03:20:17;102403.16;;;-0.42;100.00
67931;BME280;63902;52.000;5.954;2023-02-15T03:21:20;102400.50;;;-0.43;100.00
67931;BME280;63902;52.000;5.954;2023-02-15T03:22:24;102410.91;;;-0.43;100.00
67931;BME280;63902;52.000;5.954;2023-02-15T03:23:28;102411.81;;;-0.43;100.00
67931;BME280;63902;52.000;5.954;2023-02-15T03:24:32;102403.88;;;-0.48;100.00
67931;BME280;63902;52.000;5.954;2023-02-15T03:25:38;102406.50;;;-0.46;100.00
67931;BME280;63902;52.000;5.954;2023-02-15T03:26:43;102404.66;;;-0.50;100.00
67931;BME280;63902;52.000;5.954;2023-02-15T03:27:47;102402.13;;;-0.47;100.00
67931;BME280;63902;52.000;5.954;2023-02-15T03:28:50;102397.75;;;-0.48;100.00
67931;BME280;63902;52.000;5.954;2023-02-15T03:29:55;102399.53;;;-0.47;100.00
67931;BME280;63902;52.000;5.954;2023-02-15T03:30:59;102399.44;;;-0.50;100.00
67931;BME280;63902;52.000;5.954;2023-02-15T03:32:03;102399.34;;;-0.53;100.00
67931;BME280;63902;52.000;5.954;2023-02-15T03:33:05;102378.97;;;-0.66;100.00
67931;BME280;63902;52.000;5.954;2023-02-15T03:34:10;102394.94;;;-0.56;100.00
67931;BME280;63902;52.000;5.954;2023-02-15T03:35:11;102398.41;;;-0.55;100.00
67931;BME280;63902;52.000;5.954;2023-02-15T03:36:18;102390.59;;;-0.55;100.00
67931;BME280;63902;52.000;5.954;2023-02-15T03:37:26;102396.63;;;-0.56;100.00
67931;BME280;63902;52.000;5.954;2023-02-15T03:38:34;102399.22;;;-0.56;100.00
67931;BME280;63902;52.000;5.954;2023-02-15T03:39:38;102373.78;;;-0.65;100.00
67931;BME280;63902;52.000;5.954;2023-02-15T03:40:41;102385.28;;;-0.58;100.00
67931;BME280;63902;52.000;5.954;2023-02-15T03:41:50;102387.81;;;-0.61;100.00
67931;BME280;63902;52.000;5.954;2023-02-15T03:42:55;102388.72;;;-0.59;100.00
67931;BME280;63902;52.000;5.954;2023-02-15T03:44:04;102383.50;;;-0.59;100.00
67931;BME280;63902;52.000;5.954;2023-02-15T03:45:09;102382.47;;;-0.66;100.00
67931;BME280;63902;52.000;5.954;2023-02-15T03:46:13;102387.81;;;-0.61;100.00
67931;BME280;63902;52.000;5.954;2023-02-15T03:47:19;102381.66;;;-0.63;100.00
67931;BME280;63902;52.000;5.954;2023-02-15T03:48:22;102382.38;;;-0.69;100.00
67931;BME280;63902;52.000;5.954;2023-02-15T03:49:28;102385.00;;;-0.68;100.00
67931;BME280;63902;52.000;5.954;2023-02-15T03:50:33;102386.03;;;-0.62;100.00
67931;BME280;63902;52.000;5.954;2023-02-15T03:51:40;102378.22;;;-0.62;100.00
67931;BME280;63902;52.000;5.954;2023-02-15T03:52:42;102385.22;;;-0.61;100.00
67931;BME280;63902;52.000;5.954;2023-02-15T03:53:44;102379.09;;;-0.62;100.00
67931;BME280;63902;52.000;5.954;2023-02-15T03:54:46;102384.28;;;-0.63;100.00
67931;BME280;63902;52.000;5.954;2023-02-15T03:55:47;102381.56;;;-0.66;100.00
67931;BME280;63902;52.000;5.954;2023-02-15T03:56:48;102383.16;;;-0.72;100.00
67931;BME280;63902;52.000;5.954;2023-02-15T03:57:48;102377.09;;;-0.71;100.00
67931;BME280;63902;52.000;5.954;2023-02-15T03:58:49;102375.44;;;-0.69;100.00
67931;BME280;63902;52.000;5.954;2023-02-15T03:59:49;102377.06;;;-0.72;100.00
67931;BME280;63902;52.000;5.954;2023-02-15T04:00:54;102377.97;;;-0.70;100.00
67931;BME280;63902;52.000;5.954;2023-02-15T04:02:05;102375.44;;;-0.69;100.00
67931;BME280;63902;52.000;5.954;2023-02-15T04:03:22;102378.88;;;-0.70;100.00
67931;BME280;63902;52.000;5.954;2023-02-15T04:04:26;102375.38;;;-0.70;100.00
67931;BME280;63902;52.000;5.954;2023-02-15T04:05:28;102376.31;;;-0.68;100.00
67931;BME280;63902;52.000;5.954;2023-02-15T04:06:28;102375.50;;;-0.65;100.00
67931;BME280;63902;52.000;5.954;2023-02-15T04:07:30;102372.97;;;-0.64;100.00
67931;BME280;63902;52.000;5.954;2023-02-15T04:08:31;102377.28;;;-0.64;100.00
67931;BME280;63902;52.000;5.954;2023-02-15T04:09:31;102380.78;;;-0.64;100.00
67931;BME280;63902;52.000;5.954;2023-02-15T04:10:32;102375.56;;;-0.64;100.00
67931;BME280;63902;52.000;5.954;2023-02-15T04:11:32;102376.28;;;-0.70;100.00
67931;BME280;63902;52.000;5.954;2023-02-15T04:12:33;102380.63;;;-0.69;100.00
67931;BME280;63902;52.000;5.954;2023-02-15T04:13:33;102375.50;;;-0.67;100.00
67931;BME280;63902;52.000;5.954;2023-02-15T04:14:34;102372.81;;;-0.69;100.00
67931;BME280;63902;52.000;5.954;2023-02-15T04:15:34;102372.88;;;-0.67;100.00
67931;BME280;63902;52.000;5.954;2023-02-15T04:16:34;102376.38;;;-0.66;100.00
67931;BME280;63902;52.000;5.954;2023-02-15T04:17:35;102375.50;;;-0.67;100.00
67931;BME280;63902;52.000;5.954;2023-02-15T04:18:37;102377.09;;;-0.71;100.00
67931;BME280;63902;52.000;5.954;2023-02-15T04:19:38;102374.50;;;-0.71;100.00
67931;BME280;63902;52.000;5.954;2023-02-15T04:20:38;102369.19;;;-0.74;100.00
67931;BME280;63902;52.000;5.954;2023-02-15T04:21:39;102363.88;;;-0.77;100.00
67931;BME280;63902;52.000;5.954;2023-02-15T04:22:41;102348.88;;;-0.85;100.00
67931;BME280;63902;52.000;5.954;2023-02-15T04:23:41;102368.22;;;-0.77;100.00
67931;BME280;63902;52.000;5.954;2023-02-15T04:24:42;102361.13;;;-0.81;100.00
67931;BME280;63902;52.000;5.954;2023-02-15T04:25:42;102361.19;;;-0.80;100.00
67931;BME280;63902;52.000;5.954;2023-02-15T04:26:42;102366.47;;;-0.78;100.00
67931;BME280;63902;52.000;5.954;2023-02-15T04:27:45;102344.44;;;-0.88;100.00
67931;BME280;63902;52.000;5.954;2023-02-15T04:28:46;102355.97;;;-0.80;100.00
67931;BME280;63902;52.000;5.954;2023-02-15T04:29:46;102358.59;;;-0.80;100.00
67931;BME280;63902;52.000;5.954;2023-02-15T04:30:47;102362.84;;;-0.82;100.00
67931;BME280;63902;52.000;5.954;2023-02-15T04:31:47;102361.13;;;-0.81;100.00
67931;BME280;63902;52.000;5.954;2023-02-15T04:32:48;102359.34;;;-0.84;100.00
67931;BME280;63902;52.000;5.954;2023-02-15T04:33:48;102359.28;;;-0.85;100.00
67931;BME280;63902;52.000;5.954;2023-02-15T04:34:49;102366.41;;;-0.80;100.00
67931;BME280;63902;52.000;5.954;2023-02-15T04:35:49;102361.19;;;-0.80;100.00
67931;BME280;63902;52.000;5.954;2023-02-15T04:36:50;102366.41;;;-0.80;100.00
67931;BME280;63902;52.000;5.954;2023-02-15T04:37:51;102365.53;;;-0.80;100.00
67931;BME280;63902;52.000;5.954;2023-02-15T04:38:52;102365.38;;;-0.85;100.00
67931;BME280;63902;52.000;5.954;2023-02-15T04:39:52;102372.38;;;-0.84;100.00
67931;BME280;63902;52.000;5.954;2023-02-15T04:40:53;102368.81;;;-0.86;100.00
67931;BME280;63902;52.000;5.954;2023-02-15T04:41:53;102359.13;;;-0.90;100.00
67931;BME280;63902;52.000;5.954;2023-02-15T04:42:54;102363.53;;;-0.89;100.00
67931;BME280;63902;52.000;5.954;2023-02-15T04:43:54;102366.13;;;-0.89;100.00
67931;BME280;63902;52.000;5.954;2023-02-15T04:44:55;102366.84;;;-0.93;100.00
67931;BME280;63902;52.000;5.954;2023-02-15T04:45:55;102366.94;;;-0.90;100.00
67931;BME280;63902;52.000;5.954;2023-02-15T04:46:56;102369.66;;;-0.87;100.00
67931;BME280;63902;52.000;5.954;2023-02-15T04:47:56;102364.44;;;-0.87;100.00
67931;BME280;63902;52.000;5.954;2023-02-15T04:48:57;102359.03;;;-0.93;100.00
67931;BME280;63902;52.000;5.954;2023-02-15T04:49:57;102355.56;;;-0.94;100.00
67931;BME280;63902;52.000;5.954;2023-02-15T04:50:58;102345.00;;;-0.98;100.00
67931;BME280;63902;52.000;5.954;2023-02-15T04:51:58;102364.25;;;-0.93;100.00
67931;BME280;63902;52.000;5.954;2023-02-15T04:53:00;102359.88;;;-0.94;100.00
67931;BME280;63902;52.000;5.954;2023-02-15T04:54:01;102358.22;;;-0.92;100.00
67931;BME280;63902;52.000;5.954;2023-02-15T04:55:01;102358.22;;;-0.92;100.00
67931;BME280;63902;52.000;5.954;2023-02-15T04:56:02;102357.19;;;-0.97;100.00
67931;BME280;63902;52.000;5.954;2023-02-15T04:57:02;102358.94;;;-0.96;100.00
67931;BME280;63902;52.000;5.954;2023-02-15T04:58:03;102349.38;;;-0.97;100.00
67931;BME280;63902;52.000;5.954;2023-02-15T04:59:03;102349.38;;;-0.97;100.00
67931;BME280;63902;52.000;5.954;2023-02-15T05:00:05;102356.34;;;-0.96;100.00
67931;BME280;63902;52.000;5.954;2023-02-15T05:01:06;102354.50;;;-1.00;100.00
67931;BME280;63902;52.000;5.954;2023-02-15T05:02:06;102353.41;;;-1.07;100.00
67931;BME280;63902;52.000;5.954;2023-02-15T05:03:07;102357.03;;;-1.02;100.00
67931;BME280;63902;52.000;5.954;2023-02-15T05:04:08;102357.00;;;-1.03;100.00
67931;BME280;63902;52.000;5.954;2023-02-15T05:05:08;102360.53;;;-1.01;100.00
67931;BME280;63902;52.000;5.954;2023-02-15T05:06:08;102359.63;;;-1.03;100.00
67931;BME280;63902;52.000;5.954;2023-02-15T05:07:09;102360.50;;;-1.03;100.00
67931;BME280;63902;52.000;5.954;2023-02-15T05:08:11;102351.66;;;-1.08;100.00
67931;BME280;63902;52.000;5.954;2023-02-15T05:09:12;102359.63;;;-1.03;100.00
67931;BME280;63902;52.000;5.954;2023-02-15T05:10:12;102341.06;;;-1.13;100.00
67931;BME280;63902;52.000;5.954;2023-02-15T05:11:13;102350.78;;;-1.08;100.00
67931;BME280;63902;52.000;5.954;2023-02-15T05:12:13;102349.09;;;-1.06;100.00
67931;BME280;63902;52.000;5.954;2023-02-15T05:13:13;102352.50;;;-1.09;100.00
67931;BME280;63902;52.000;5.954;2023-02-15T05:14:14;102352.44;;;-1.10;100.00
67931;BME280;63902;52.000;5.954;2023-02-15T05:15:14;102348.09;;;-1.10;100.00
67931;BME280;63902;52.000;5.954;2023-02-15T05:16:15;102359.41;;;-1.09;100.00
67931;BME280;63902;52.000;5.954;2023-02-15T05:17:15;102355.09;;;-1.09;100.00
67931;BME280;63902;52.000;5.954;2023-02-15T05:18:16;102357.63;;;-1.10;100.00
67931;BME280;63902;52.000;5.954;2023-02-15T05:19:17;102361.97;;;-1.11;100.00
67931;BME280;63902;52.000;5.954;2023-02-15T05:20:17;102355.81;;;-1.13;100.00
67931;BME280;63902;52.000;5.954;2023-02-15T05:21:18;102353.22;;;-1.13;100.00
67931;BME280;63902;52.000;5.954;2023-02-15T05:22:18;102350.59;;;-1.15;100.00
67931;BME280;63902;52.000;5.954;2023-02-15T05:23:20;102343.50;;;-1.19;100.00
67931;BME280;63902;52.000;5.954;2023-02-15T05:24:20;102344.38;;;-1.18;100.00
67931;BME280;63902;52.000;5.954;2023-02-15T05:25:21;102338.19;;;-1.22;100.00
67931;BME280;63902;52.000;5.954;2023-02-15T05:26:23;102349.56;;;-1.18;100.00
67931;BME280;63902;52.000;5.954;2023-02-15T05:27:24;102338.28;;;-1.19;100.00
67931;BME280;63902;52.000;5.954;2023-02-15T05:28:26;102340.97;;;-1.16;100.00
67931;BME280;63902;52.000;5.954;2023-02-15T05:29:27;102343.50;;;-1.19;100.00